Time;durP1;ratioP1;P1;durP2;ratioP2;P2;SDS_P1;SDS_P2;PMS_P1;PMS_P2;Temp;Humidity;BMP_temperature;BMP_pressure;BME280_temperature;BME280_humidity;BME280_pressure;Samples;Min_cycle;Max_cycle;Signal;HPM_P1;HPM_P2
2022/03/29 00:01:58;;;;;;;30.67;14.15;;;11.80;99.90;;;;;;5032540;28;20163;-46
2022/03/29 00:04:25;;;;;;;26.15;13.27;;;11.70;99.90;;;;;;5032406;28;20246;-46
2022/03/29 00:06:51;;;;;;;27.02;14.07;;;11.70;99.90;;;;;;5032704;28;20171;-46
2022/03/29 00:09:17;;;;;;;24.77;14.27;;;11.70;99.90;;;;;;5032372;28;20167;-46
2022/03/29 00:11:43;;;;;;;25.23;13.25;;;11.70;99.90;;;;;;5033327;28;20322;-46
2022/03/29 00:14:08;;;;;;;28.83;13.95;;;11.70;99.90;;;;;;5032358;28;20171;-46
2022/03/29 00:16:34;;;;;;;34.90;14.52;;;11.70;99.90;;;;;;5032671;28;20293;-47
2022/03/29 00:19:00;;;;;;;34.67;14.63;;;11.60;99.90;;;;;;5032292;28;20706;-46
2022/03/29 00:21:26;;;;;;;28.52;14.52;;;11.60;99.90;;;;;;5032262;28;20254;-46
2022/03/29 00:23:52;;;;;;;29.90;13.18;;;11.60;99.90;;;;;;5032532;28;20582;-46
2022/03/29 00:26:18;;;;;;;33.60;13.77;;;11.60;99.90;;;;;;5032533;28;20219;-46
2022/03/29 00:28:43;;;;;;;29.92;15.00;;;11.60;99.90;;;;;;5032144;28;20654;-46
2022/03/29 00:31:10;;;;;;;29.10;13.55;;;11.60;99.90;;;;;;5031793;28;20504;-46
2022/03/29 00:33:36;;;;;;;25.65;12.57;;;11.60;99.90;;;;;;5031796;28;20538;-47
2022/03/29 00:36:01;;;;;;;33.35;14.68;;;11.60;99.90;;;;;;5032087;28;20206;-46
2022/03/29 00:38:27;;;;;;;28.02;13.25;;;11.50;99.90;;;;;;5032411;28;20171;-46
2022/03/29 00:40:53;;;;;;;28.73;13.23;;;11.50;99.90;;;;;;5032087;28;20669;-46
2022/03/29 00:43:19;;;;;;;28.88;12.93;;;11.40;99.90;;;;;;5032284;28;20207;-47
2022/03/29 00:45:45;;;;;;;26.55;13.73;;;11.40;99.90;;;;;;5031980;28;20193;-46
2022/03/29 00:48:12;;;;;;;24.30;13.18;;;11.40;99.90;;;;;;5031838;28;20215;-47
2022/03/29 00:50:39;;;;;;;33.20;16.70;;;11.40;99.90;;;;;;5032196;28;20175;-47
2022/03/29 00:53:08;;;;;;;45.38;18.23;;;11.40;99.90;;;;;;5032006;28;20160;-46
2022/03/29 00:55:35;;;;;;;39.90;19.17;;;11.40;99.90;;;;;;5031926;28;20213;-46
2022/03/29 00:58:03;;;;;;;28.70;14.65;;;11.40;99.90;;;;;;5031895;28;20164;-46
2022/03/29 01:00:31;;;;;;;43.47;17.58;;;11.30;99.90;;;;;;5031774;28;20639;-46
2022/03/29 01:02:58;;;;;;;34.90;17.00;;;11.30;99.90;;;;;;5031843;28;20171;-46
2022/03/29 01:05:24;;;;;;;33.25;14.32;;;11.20;99.90;;;;;;5031784;28;20242;-46
2022/03/29 01:07:50;;;;;;;29.05;13.70;;;11.10;99.90;;;;;;5032366;28;20175;-46
2022/03/29 01:10:15;;;;;;;25.48;13.88;;;11.00;99.90;;;;;;5031817;28;20170;-46
2022/03/29 01:12:41;;;;;;;29.83;13.52;;;10.90;99.90;;;;;;5031933;28;20179;-46
2022/03/29 01:15:10;;;;;;;30.88;14.43;;;11.10;99.90;;;;;;5031650;28;20194;-46
2022/03/29 01:17:39;;;;;;;31.20;15.27;;;11.10;99.90;;;;;;5031952;28;20179;-47
2022/03/29 01:20:18;;;;;;;41.13;18.40;;;11.10;99.90;;;;;;5031652;28;20175;-46
2022/03/29 01:22:48;;;;;;;41.83;20.10;;;11.10;99.90;;;;;;5031672;28;20729;-47
2022/03/29 01:25:22;;;;;;;49.70;24.05;;;11.10;99.90;;;;;;5031768;28;20163;-47
2022/03/29 01:27:51;;;;;;;37.58;16.25;;;11.10;99.90;;;;;;5031874;28;20168;-46
2022/03/29 01:30:17;;;;;;;26.40;13.63;;;11.10;99.90;;;;;;5031626;28;20167;-46
2022/03/29 01:32:50;;;;;;;26.38;13.45;;;11.10;99.90;;;;;;5031488;28;20254;-46
2022/03/29 01:35:18;;;;;;;28.90;13.40;;;11.00;99.90;;;;;;5031518;28;20207;-46
2022/03/29 01:37:44;;;;;;;26.25;12.95;;;11.00;99.90;;;;;;5031558;28;20174;-46
2022/03/29 01:40:12;;;;;;;24.92;12.13;;;10.90;99.90;;;;;;5031494;28;20171;-46
2022/03/29 01:42:55;;;;;;;33.95;13.70;;;10.80;99.90;;;;;;5031733;28;20198;-46
2022/03/29 01:45:23;;;;;;;26.75;12.52;;;10.80;99.90;;;;;;5035329;28;20706;-46
2022/03/29 01:47:48;;;;;;;20.02;12.18;;;10.80;99.90;;;;;;5033939;28;20273;-46
2022/03/29 01:50:15;;;;;;;29.10;13.60;;;10.80;99.90;;;;;;5034946;28;20179;-46
2022/03/29 01:52:45;;;;;;;28.48;13.25;;;10.80;99.90;;;;;;5034863;28;20530;-47
2022/03/29 01:55:11;;;;;;;22.75;13.52;;;10.80;99.90;;;;;;5035014;28;20198;-46
2022/03/29 01:57:37;;;;;;;20.33;11.88;;;10.80;99.90;;;;;;5035094;28;20182;-46
2022/03/29 02:02:52;;;;;;;25.65;13.02;;;10.90;99.90;;;;;;5035629;28;20262;-46
2022/03/29 02:05:20;;;;;;;28.13;12.55;;;10.90;99.90;;;;;;5034968;28;20569;-46
2022/03/29 02:07:46;;;;;;;25.65;13.43;;;10.90;99.90;;;;;;5034701;28;20168;-46
2022/03/29 02:10:18;;;;;;;24.00;12.00;;;10.90;99.90;;;;;;5034566;28;20172;-46
2022/03/29 02:12:45;;;;;;;28.05;12.98;;;10.90;99.90;;;;;;5034852;28;20619;-46
2022/03/29 02:15:10;;;;;;;23.63;12.10;;;10.90;99.90;;;;;;5034413;28;20195;-46
2022/03/29 02:17:36;;;;;;;25.98;12.40;;;10.90;99.90;;;;;;5034438;28;20166;-46
2022/03/29 02:20:03;;;;;;;25.85;13.07;;;10.80;99.90;;;;;;5034381;28;20631;-46
2022/03/29 02:22:28;;;;;;;25.05;12.75;;;10.80;99.90;;;;;;5034267;28;20182;-46
2022/03/29 02:24:54;;;;;;;22.65;12.32;;;10.80;99.90;;;;;;5034358;28;20175;-46
2022/03/29 02:27:20;;;;;;;29.38;12.85;;;10.80;99.90;;;;;;5034812;28;20203;-46
2022/03/29 02:29:45;;;;;;;26.65;13.20;;;10.80;99.90;;;;;;5034186;28;20168;-46
2022/03/29 02:32:11;;;;;;;25.02;12.60;;;10.80;99.90;;;;;;5034123;28;20168;-46
2022/03/29 02:34:36;;;;;;;27.27;13.20;;;10.80;99.90;;;;;;5034053;28;20201;-46
2022/03/29 02:37:02;;;;;;;23.80;12.45;;;10.70;99.90;;;;;;5034073;28;20184;-46
2022/03/29 02:39:27;;;;;;;25.65;12.80;;;10.70;99.90;;;;;;5034259;28;20226;-46
2022/03/29 02:41:53;;;;;;;30.02;14.10;;;10.70;99.90;;;;;;5034000;28;20175;-46
2022/03/29 02:44:19;;;;;;;25.00;14.27;;;10.80;99.90;;;;;;5034154;28;20211;-46
2022/03/29 02:46:44;;;;;;;22.67;12.05;;;10.80;99.90;;;;;;5033927;28;20580;-46
2022/03/29 02:49:10;;;;;;;26.60;13.15;;;10.80;99.90;;;;;;5033875;28;20584;-46
2022/03/29 02:51:36;;;;;;;25.90;13.75;;;10.80;99.90;;;;;;5034090;28;20167;-46
2022/03/29 02:54:02;;;;;;;28.70;13.77;;;10.80;99.90;;;;;;5033677;28;20171;-46
2022/03/29 02:56:28;;;;;;;24.65;14.43;;;10.80;99.90;;;;;;5032791;28;20207;-46
2022/03/29 02:58:54;;;;;;;26.67;12.65;;;10.80;99.90;;;;;;5033908;28;20168;-46
2022/03/29 03:01:19;;;;;;;31.05;13.77;;;10.80;99.90;;;;;;5034132;28;20179;-46
2022/03/29 03:03:45;;;;;;;28.20;13.48;;;10.70;99.90;;;;;;5033731;28;20175;-46
2022/03/29 03:06:11;;;;;;;29.15;13.70;;;10.60;99.90;;;;;;5033530;28;20160;-46
2022/03/29 03:08:36;;;;;;;26.83;13.82;;;10.60;99.90;;;;;;5033541;28;20531;-46
2022/03/29 03:11:02;;;;;;;29.23;13.85;;;10.60;99.90;;;;;;5048806;28;20602;-46
2022/03/29 03:13:28;;;;;;;26.70;12.10;;;10.60;99.90;;;;;;5033717;28;20171;-46
2022/03/29 03:15:53;;;;;;;24.77;13.52;;;10.60;99.90;;;;;;5033331;28;20306;-46
2022/03/29 03:18:19;;;;;;;27.35;13.80;;;10.60;99.90;;;;;;5033642;28;20164;-46
2022/03/29 03:20:44;;;;;;;28.73;14.20;;;10.60;99.90;;;;;;5033306;28;20228;-46
2022/03/29 03:23:10;;;;;;;27.75;14.68;;;10.60;99.90;;;;;;5033427;28;20171;-46
2022/03/29 03:25:36;;;;;;;30.40;14.40;;;10.60;99.90;;;;;;5033225;28;20168;-46
2022/03/29 03:28:01;;;;;;;28.90;13.77;;;10.70;99.90;;;;;;5033293;28;20224;-46
2022/03/29 03:30:27;;;;;;;25.45;12.80;;;10.60;99.90;;;;;;5033063;28;20653;-46
2022/03/29 03:32:54;;;;;;;24.15;13.80;;;10.60;99.90;;;;;;5033074;28;20167;-46
2022/03/29 03:35:20;;;;;;;23.80;14.30;;;10.60;99.90;;;;;;5033434;28;20231;-47
2022/03/29 03:37:46;;;;;;;21.25;12.68;;;10.60;99.90;;;;;;5032826;28;20258;-46
2022/03/29 03:40:12;;;;;;;29.83;13.25;;;10.70;99.90;;;;;;5033127;28;20179;-46
2022/03/29 03:42:38;;;;;;;31.13;13.77;;;10.60;99.90;;;;;;5032824;28;20562;-46
2022/03/29 03:45:06;;;;;;;25.02;13.35;;;10.70;99.90;;;;;;5033051;28;20254;-47
2022/03/29 03:47:32;;;;;;;25.85;14.30;;;10.60;99.90;;;;;;5032659;28;20250;-46
2022/03/29 03:49:58;;;;;;;25.13;12.43;;;10.60;99.90;;;;;;5032702;28;20269;-46
2022/03/29 03:52:23;;;;;;;25.23;13.13;;;10.60;99.90;;;;;;5032986;28;20202;-46
2022/03/29 03:54:49;;;;;;;30.02;14.07;;;10.60;99.90;;;;;;5033047;28;20217;-47
2022/03/29 03:57:15;;;;;;;28.20;13.77;;;10.60;99.90;;;;;;5032619;28;20346;-46
2022/03/29 03:59:40;;;;;;;26.05;14.35;;;10.60;99.90;;;;;;5047985;28;20167;-47
2022/03/29 04:02:06;;;;;;;23.60;13.50;;;10.60;99.90;;;;;;5032746;28;20171;-46
2022/03/29 04:04:32;;;;;;;22.92;12.90;;;10.60;99.90;;;;;;5032508;28;20155;-46
2022/03/29 04:06:57;;;;;;;23.17;13.73;;;10.60;99.90;;;;;;5032259;28;20623;-46
2022/03/29 04:09:24;;;;;;;25.20;14.10;;;10.60;99.90;;;;;;5032391;28;20186;-46
2022/03/29 04:11:49;;;;;;;37.75;14.55;;;10.60;99.90;;;;;;5032617;28;20205;-46
2022/03/29 04:14:16;;;;;;;25.23;13.63;;;10.50;99.90;;;;;;5032322;28;20179;-47
2022/03/29 04:16:41;;;;;;;27.45;14.32;;;10.50;99.90;;;;;;5031879;28;20549;-46
2022/03/29 04:19:07;;;;;;;24.63;13.98;;;10.50;99.90;;;;;;5032216;28;20171;-46
2022/03/29 04:21:32;;;;;;;26.95;14.60;;;10.40;99.90;;;;;;5032223;28;20634;-46
2022/03/29 04:23:58;;;;;;;29.75;14.52;;;10.40;99.90;;;;;;5032190;28;20171;-47
2022/03/29 04:26:23;;;;;;;27.00;13.35;;;10.40;99.90;;;;;;5032170;28;20254;-47
2022/03/29 04:28:49;;;;;;;23.30;13.88;;;10.40;99.90;;;;;;5032492;28;20646;-46
2022/03/29 04:31:15;;;;;;;24.15;13.93;;;10.40;99.90;;;;;;5032147;28;20175;-46
2022/03/29 04:33:41;;;;;;;26.80;14.38;;;10.30;99.90;;;;;;5031979;28;20159;-46
2022/03/29 04:36:07;;;;;;;33.83;13.45;;;10.40;99.90;;;;;;5032189;28;20244;-46
2022/03/29 04:38:32;;;;;;;22.55;13.45;;;10.40;99.90;;;;;;5032060;28;20611;-46
2022/03/29 04:40:58;;;;;;;25.08;14.57;;;10.30;99.90;;;;;;5031914;28;20179;-46
2022/03/29 04:43:24;;;;;;;30.17;14.90;;;10.30;99.90;;;;;;5031510;28;20182;-46
2022/03/29 04:45:50;;;;;;;29.90;14.70;;;10.40;99.90;;;;;;5032281;28;20274;-46
2022/03/29 04:48:15;;;;;;;29.67;14.55;;;10.30;99.90;;;;;;5032059;28;20186;-47
2022/03/29 04:50:41;;;;;;;30.17;14.85;;;10.30;99.90;;;;;;5032076;28;20233;-47
2022/03/29 04:53:07;;;;;;;23.55;14.20;;;10.30;99.90;;;;;;5031971;28;20171;-46
2022/03/29 04:55:33;;;;;;;23.55;13.80;;;10.20;99.90;;;;;;5031872;28;20207;-46
2022/03/29 04:58:00;;;;;;;22.20;13.00;;;10.30;99.90;;;;;;5031869;28;20168;-46
2022/03/29 05:00:26;;;;;;;26.48;14.77;;;10.20;99.90;;;;;;5032014;28;20258;-46
2022/03/29 05:02:52;;;;;;;23.35;13.57;;;10.20;99.90;;;;;;5031712;28;20250;-46
2022/03/29 05:05:17;;;;;;;28.08;14.52;;;10.20;99.90;;;;;;5031994;28;20256;-46
2022/03/29 05:07:43;;;;;;;26.48;14.70;;;10.20;99.90;;;;;;5031666;28;20187;-46
2022/03/29 05:10:11;;;;;;;23.98;13.75;;;10.20;99.90;;;;;;5031633;28;20205;-46
2022/03/29 05:12:45;;;;;;;24.60;15.65;;;10.20;99.90;;;;;;5031989;28;20182;-47
2022/03/29 05:15:12;;;;;;;25.55;13.43;;;10.10;99.90;;;;;;5031923;28;20203;-46
2022/03/29 05:17:38;;;;;;;27.90;14.52;;;10.10;99.90;;;;;;5031981;28;20630;-46
2022/03/29 05:20:05;;;;;;;30.00;14.82;;;10.00;99.90;;;;;;5035311;28;20159;-46
2022/03/29 05:22:31;;;;;;;26.33;13.73;;;9.90;99.90;;;;;;5035456;28;20258;-46
2022/03/29 05:24:57;;;;;;;29.25;14.15;;;9.90;99.90;;;;;;5035677;28;20297;-47
2022/03/29 05:27:23;;;;;;;26.83;13.73;;;10.00;99.90;;;;;;5035673;28;20199;-46
2022/03/29 05:29:48;;;;;;;29.13;14.00;;;10.00;99.90;;;;;;5035710;28;20559;-47
2022/03/29 05:32:18;;;;;;;30.25;14.63;;;9.90;99.90;;;;;;5035371;28;20233;-46
2022/03/29 05:34:47;;;;;;;27.30;15.55;;;9.90;99.90;;;;;;5035408;28;20175;-46
2022/03/29 05:37:14;;;;;;;25.63;13.90;;;9.90;99.90;;;;;;5050606;28;20282;-46
2022/03/29 05:39:43;;;;;;;31.02;15.63;;;9.90;99.90;;;;;;5035420;28;20179;-46
2022/03/29 05:42:10;;;;;;;28.75;14.27;;;9.90;99.90;;;;;;5035427;28;20669;-46
2022/03/29 05:44:39;;;;;;;31.48;15.45;;;10.00;99.90;;;;;;5034815;28;20197;-46
2022/03/29 05:49:51;;;;;;;24.35;14.35;;;10.00;99.90;;;;;;5035523;28;20206;-46
2022/03/29 05:52:18;;;;;;;27.27;14.68;;;10.10;99.90;;;;;;5035370;28;20175;-46
2022/03/29 05:54:45;;;;;;;30.67;15.80;;;10.10;99.90;;;;;;5035053;28;20317;-46
2022/03/29 05:57:12;;;;;;;28.13;14.98;;;10.10;99.90;;;;;;5035062;28;20179;-47
2022/03/29 05:59:38;;;;;;;24.27;14.80;;;10.10;99.90;;;;;;5034788;28;20171;-46
2022/03/29 06:02:04;;;;;;;30.60;14.95;;;10.10;99.90;;;;;;5034790;28;20171;-46
2022/03/29 06:04:37;;;;;;;24.42;15.15;;;10.10;99.90;;;;;;5034857;28;20201;-46
2022/03/29 06:07:04;;;;;;;27.38;14.30;;;10.10;99.90;;;;;;5033288;28;20190;-46
2022/03/29 06:09:30;;;;;;;30.50;14.07;;;10.00;99.90;;;;;;5049821;28;20293;-46
2022/03/29 06:11:56;;;;;;;30.45;14.30;;;10.00;99.90;;;;;;5034496;28;20258;-49
2022/03/29 06:14:22;;;;;;;25.58;14.38;;;10.00;99.90;;;;;;5034716;28;20631;-46
2022/03/29 06:16:48;;;;;;;24.85;15.52;;;10.00;99.90;;;;;;5034689;28;20573;-46
2022/03/29 06:19:13;;;;;;;25.23;15.35;;;10.10;99.90;;;;;;5034513;28;20168;-46
2022/03/29 06:21:40;;;;;;;29.00;14.88;;;10.10;99.90;;;;;;5034645;28;20179;-47
2022/03/29 06:24:07;;;;;;;28.50;16.48;;;10.10;99.90;;;;;;5034662;28;20186;-45
2022/03/29 06:26:36;;;;;;;34.58;14.95;;;10.20;99.90;;;;;;5034530;28;20254;-46
2022/03/29 06:29:06;;;;;;;35.47;15.77;;;10.30;99.90;;;;;;5034126;28;20662;-46
2022/03/29 06:31:31;;;;;;;27.75;16.80;;;10.40;99.90;;;;;;5034473;28;20183;-46
2022/03/29 06:33:57;;;;;;;29.67;16.85;;;10.40;99.90;;;;;;5034216;28;20545;-46
2022/03/29 06:36:23;;;;;;;28.45;15.90;;;10.50;99.90;;;;;;5033994;28;20211;-46
2022/03/29 06:38:49;;;;;;;29.55;16.73;;;10.60;99.90;;;;;;5034301;28;20167;-46
2022/03/29 06:41:15;;;;;;;25.98;16.02;;;10.70;99.90;;;;;;5034270;28;20175;-46
2022/03/29 06:43:41;;;;;;;28.15;16.55;;;10.80;99.90;;;;;;5033921;28;20631;-46
2022/03/29 06:46:08;;;;;;;27.90;16.73;;;10.80;99.90;;;;;;5033748;28;20186;-46
2022/03/29 06:48:35;;;;;;;29.17;16.38;;;10.90;99.90;;;;;;5034082;28;20172;-46
2022/03/29 06:51:00;;;;;;;26.25;16.90;;;10.80;99.90;;;;;;5033817;28;20171;-46
2022/03/29 06:53:26;;;;;;;33.42;19.27;;;10.90;99.90;;;;;;5033813;28;20517;-46
2022/03/29 06:55:52;;;;;;;26.30;17.33;;;11.00;99.90;;;;;;5033915;28;20207;-46
2022/03/29 06:58:18;;;;;;;36.38;18.88;;;11.00;99.90;;;;;;5034232;28;20203;-46
2022/03/29 07:00:43;;;;;;;29.25;17.90;;;11.00;99.90;;;;;;5033636;28;20205;-46
2022/03/29 07:03:10;;;;;;;30.70;17.83;;;11.10;99.90;;;;;;5033521;28;20218;-47
2022/03/29 07:05:38;;;;;;;32.58;18.67;;;11.10;99.90;;;;;;5033532;28;20163;-46
2022/03/29 07:08:05;;;;;;;33.20;17.70;;;11.10;99.90;;;;;;5032321;28;20762;-46
2022/03/29 07:13:15;;;;;;;37.60;18.60;;;11.10;99.90;;;;;;5033412;28;20209;-47
2022/03/29 07:15:40;;;;;;;30.05;18.98;;;11.10;99.90;;;;;;5033399;28;20203;-46
2022/03/29 07:18:06;;;;;;;26.63;18.60;;;11.10;99.90;;;;;;5033416;28;20514;-46
2022/03/29 07:20:31;;;;;;;30.63;19.50;;;11.10;99.90;;;;;;5033447;28;20180;-46
2022/03/29 07:22:57;;;;;;;32.05;18.92;;;11.00;99.90;;;;;;5033206;28;20178;-46
2022/03/29 07:25:25;;;;;;;31.67;18.95;;;11.20;99.90;;;;;;5033171;28;20172;-46
2022/03/29 07:27:53;;;;;;;32.15;18.95;;;11.20;99.90;;;;;;5033619;28;20175;-46
2022/03/29 07:30:19;;;;;;;27.25;18.50;;;11.30;99.90;;;;;;5033632;28;20214;-47
2022/03/29 07:32:52;;;;;;;30.48;18.05;;;11.30;99.90;;;;;;5033030;28;20175;-47
2022/03/29 07:35:19;;;;;;;28.33;19.77;;;11.20;99.90;;;;;;5033415;28;20282;-47
2022/03/29 07:37:46;;;;;;;28.58;18.63;;;11.20;99.90;;;;;;5032933;28;20171;-46
2022/03/29 07:40:13;;;;;;;31.35;18.92;;;11.40;99.90;;;;;;5032849;28;20167;-47
2022/03/29 07:42:38;;;;;;;30.67;19.30;;;11.40;99.90;;;;;;5045442;28;20179;-45
2022/03/29 07:45:06;;;;;;;32.55;18.67;;;11.50;99.90;;;;;;5031480;28;20281;-46
2022/03/29 07:47:34;;;;;;;30.83;17.98;;;11.50;99.90;;;;;;5031040;28;20698;-46
2022/03/29 07:50:01;;;;;;;27.52;19.52;;;11.60;99.90;;;;;;5031543;28;20298;-44
2022/03/29 07:52:27;;;;;;;32.85;18.55;;;11.80;99.90;;;;;;5031237;28;20567;-45
2022/03/29 07:54:53;;;;;;;33.35;18.88;;;11.80;99.90;;;;;;5031235;28;20214;-48
2022/03/29 07:57:19;;;;;;;27.83;18.35;;;11.90;99.90;;;;;;5031512;28;20210;-46
2022/03/29 07:59:44;;;;;;;27.08;18.95;;;11.80;99.90;;;;;;5031419;28;20167;-46
2022/03/29 08:02:10;;;;;;;27.40;18.48;;;11.90;99.90;;;;;;5031168;28;20225;-47
2022/03/29 08:04:35;;;;;;;31.33;20.45;;;11.90;99.90;;;;;;5031022;28;20604;-47
2022/03/29 08:07:01;;;;;;;31.80;20.52;;;12.10;99.90;;;;;;5031122;28;20208;-47
2022/03/29 08:09:29;;;;;;;34.67;19.92;;;12.10;99.90;;;;;;5031377;28;20176;-48
2022/03/29 08:11:55;;;;;;;30.08;19.80;;;11.10;99.90;;;;;;5030311;28;20598;-47
2022/03/29 08:14:25;;;;;;;31.33;19.88;;;12.20;99.90;;;;;;5031228;28;20242;-50
2022/03/29 08:16:55;;;;;;;31.60;19.88;;;12.20;99.90;;;;;;5031432;28;20207;-47
2022/03/29 08:19:21;;;;;;;33.38;19.75;;;12.40;99.90;;;;;;5031375;28;20175;-47
2022/03/29 08:21:50;;;;;;;30.48;20.83;;;12.30;99.90;;;;;;5031098;28;20646;-47
2022/03/29 08:24:23;;;;;;;30.42;20.45;;;12.40;99.90;;;;;;5030878;28;20179;-47
2022/03/29 08:26:51;;;;;;;28.63;19.55;;;12.50;99.90;;;;;;5030082;28;20649;-47
2022/03/29 08:29:18;;;;;;;27.42;19.55;;;12.60;99.90;;;;;;5031031;28;20534;-46
2022/03/29 08:31:45;;;;;;;28.60;19.15;;;12.70;99.90;;;;;;5030871;28;20182;-47
2022/03/29 08:34:11;;;;;;;32.15;19.90;;;12.90;99.90;;;;;;5029617;28;20638;-47
2022/03/29 08:36:38;;;;;;;29.58;19.75;;;13.10;99.90;;;;;;5030872;28;20211;-47
2022/03/29 08:39:05;;;;;;;29.60;20.17;;;13.20;99.90;;;;;;5030942;28;20190;-47
2022/03/29 08:41:36;;;;;;;27.73;20.45;;;13.30;99.90;;;;;;5030750;28;20167;-46
2022/03/29 08:44:01;;;;;;;31.38;19.75;;;13.40;99.90;;;;;;5030542;28;20639;-47
2022/03/29 08:46:38;;;;;;;32.50;20.52;;;13.40;99.90;;;;;;5030592;28;20226;-46
2022/03/29 08:49:07;;;;;;;32.85;21.48;;;13.50;99.90;;;;;;5030642;28;20179;-46
2022/03/29 08:51:34;;;;;;;29.50;20.30;;;13.60;99.90;;;;;;5030490;28;20172;-46
2022/03/29 08:54:00;;;;;;;34.78;21.67;;;13.70;99.90;;;;;;5031406;28;20213;-46
2022/03/29 08:56:26;;;;;;;32.10;19.55;;;13.60;99.90;;;;;;5034528;28;20552;-46
2022/03/29 08:58:51;;;;;;;31.48;20.65;;;13.60;99.90;;;;;;5034701;28;20647;-46
2022/03/29 09:01:21;;;;;;;35.75;20.58;;;13.70;99.90;;;;;;5034624;28;20569;-47
2022/03/29 09:04:07;;;;;;;27.25;18.73;;;13.80;99.90;;;;;;5034405;28;20266;-47
2022/03/29 09:06:33;;;;;;;23.77;18.48;;;13.80;99.90;;;;;;5027169;28;20183;-47
2022/03/29 09:08:58;;;;;;;26.58;18.48;;;13.80;99.90;;;;;;5034168;28;20194;-47
2022/03/29 09:11:24;;;;;;;27.85;18.33;;;14.00;99.90;;;;;;5034228;28;20672;-46
2022/03/29 09:14:03;;;;;;;24.55;19.15;;;14.10;99.90;;;;;;5034291;28;20658;-46
2022/03/29 09:16:36;;;;;;;29.83;20.05;;;14.20;99.90;;;;;;5034036;28;20264;-46
2022/03/29 09:19:02;;;;;;;31.85;19.83;;;14.30;99.90;;;;;;5032849;28;20160;-46
2022/03/29 09:21:28;;;;;;;27.95;20.45;;;14.40;99.90;;;;;;5034115;28;20171;-46
2022/03/29 09:24:11;;;;;;;30.15;19.42;;;14.40;99.90;;;;;;5034060;28;20168;-46
2022/03/29 09:26:48;;;;;;;26.83;17.75;;;14.60;99.90;;;;;;5034294;28;20224;-46
2022/03/29 09:29:21;;;;;;;30.13;19.25;;;13.40;99.90;;;;;;5033871;28;20697;-47
2022/03/29 09:32:09;;;;;;;22.75;18.15;;;14.80;99.90;;;;;;5034230;28;20214;-47
2022/03/29 09:34:35;;;;;;;28.42;18.70;;;14.60;99.90;;;;;;5034137;28;20159;-47
2022/03/29 09:37:03;;;;;;;25.77;19.17;;;14.60;99.90;;;;;;5033963;28;20211;-47
2022/03/29 09:39:40;;;;;;;30.17;18.50;;;14.50;99.90;;;;;;5033836;28;20187;-48
2022/03/29 09:42:10;;;;;;;25.67;18.25;;;14.50;99.90;;;;;;5033482;28;20644;-48
2022/03/29 09:44:45;;;;;;;23.00;16.88;;;14.50;99.90;;;;;;5033816;28;20175;-47
2022/03/29 09:47:14;;;;;;;24.80;18.80;;;14.20;99.90;;;;;;5032792;28;20268;-48
2022/03/29 09:50:06;;;;;;;25.88;17.88;;;14.10;99.90;;;;;;5032420;28;20175;-47
2022/03/29 09:52:44;;;;;;;25.88;18.25;;;14.30;99.90;;;;;;5032469;28;20294;-47
2022/03/29 09:55:20;;;;;;;25.05;17.85;;;14.50;99.90;;;;;;5031086;28;20634;-46
2022/03/29 09:57:46;;;;;;;24.40;17.17;;;14.70;99.90;;;;;;5032374;28;20187;-46
2022/03/29 10:00:33;;;;;;;27.08;17.92;;;15.10;99.90;;;;;;5032017;28;20184;-46
2022/03/29 10:03:01;;;;;;;21.27;17.02;;;15.00;99.90;;;;;;5032209;28;20171;-46
2022/03/29 10:05:30;;;;;;;22.45;17.23;;;15.10;99.90;;;;;;5030884;28;20171;-46
2022/03/29 10:10:47;;;;;;;23.88;17.13;;;15.00;99.90;;;;;;5032431;28;20213;-46
2022/03/29 10:13:14;;;;;;;23.75;18.02;;;15.00;99.90;;;;;;5032229;28;20301;-46
2022/03/29 10:15:41;;;;;;;23.27;16.90;;;15.10;99.90;;;;;;5031723;28;20736;-46
2022/03/29 10:18:07;;;;;;;21.95;17.60;;;15.20;99.90;;;;;;5032006;28;20159;-46
2022/03/29 10:20:34;;;;;;;25.67;17.27;;;15.20;99.90;;;;;;5032233;28;20178;-53
2022/03/29 10:23:01;;;;;;;25.15;17.73;;;15.20;99.90;;;;;;5031874;28;20178;-46
2022/03/29 10:25:28;;;;;;;23.85;17.27;;;15.10;99.90;;;;;;5031836;28;20171;-46
2022/03/29 10:27:56;;;;;;;25.95;17.73;;;15.20;99.90;;;;;;5031787;28;20262;-46
2022/03/29 10:30:31;;;;;;;25.45;17.70;;;15.10;99.90;;;;;;5032025;28;20180;-46
2022/03/29 10:33:25;;;;;;;23.50;17.95;;;15.00;99.90;;;;;;5032020;28;20171;-46
2022/03/29 10:36:06;;;;;;;27.15;18.25;;;15.20;99.90;;;;;;5030715;28;20199;-46
2022/03/29 10:38:47;;;;;;;28.50;18.20;;;15.40;99.90;;;;;;5031935;28;20171;-46
2022/03/29 10:41:31;;;;;;;27.30;16.77;;;15.70;99.90;;;;;;5031717;28;20167;-46
2022/03/29 10:44:08;;;;;;;22.90;17.73;;;15.90;99.90;;;;;;5031596;28;20164;-46
2022/03/29 10:46:37;;;;;;;22.52;16.42;;;16.30;99.90;;;;;;4991326;28;1173803;-46
2022/03/29 10:49:28;;;;;;;21.58;17.55;;;16.30;99.90;;;;;;5031338;28;20642;-46
2022/03/29 10:52:16;;;;;;;20.15;15.43;;;16.30;99.90;;;;;;5032766;28;20217;-46
2022/03/29 10:54:42;;;;;;;22.52;17.17;;;16.20;99.90;;;;;;5032315;28;20184;-46
2022/03/29 10:57:20;;;;;;;23.27;15.75;;;16.10;99.90;;;;;;5032383;28;20211;-47
2022/03/29 10:59:50;;;;;;;26.40;16.70;;;16.40;99.90;;;;;;5032677;28;20198;-46
2022/03/29 11:02:20;;;;;;;21.88;17.00;;;16.50;99.90;;;;;;5032530;28;20218;-46
2022/03/29 11:05:07;;;;;;;22.65;16.20;;;16.60;99.90;;;;;;5032355;28;20164;-46
2022/03/29 11:07:34;;;;;;;21.95;15.68;;;16.40;99.90;;;;;;5032426;28;20175;-45
2022/03/29 11:10:13;;;;;;;15.32;13.57;;;16.50;99.90;;;;;;5032171;28;20177;-46
2022/03/29 11:12:46;;;;;;;28.02;18.73;;;16.50;99.90;;;;;;5032191;28;20639;-46
2022/03/29 11:15:36;;;;;;;22.00;15.82;;;16.70;99.90;;;;;;5032105;28;20179;-46
2022/03/29 11:18:23;;;;;;;16.02;13.85;;;17.00;99.90;;;;;;5032071;28;20309;-46
2022/03/29 11:20:56;;;;;;;15.60;13.93;;;16.90;99.90;;;;;;5032115;28;20244;-46
2022/03/29 11:23:33;;;;;;;18.77;13.48;;;16.90;99.90;;;;;;5030694;28;20171;-46
2022/03/29 11:26:05;;;;;;;16.83;12.77;;;16.90;99.90;;;;;;5031907;28;20179;-46
2022/03/29 11:28:31;;;;;;;16.98;12.02;;;16.70;99.90;;;;;;5031733;28;20242;-46
2022/03/29 11:30:57;;;;;;;14.68;11.85;;;16.80;99.90;;;;;;5031988;28;20190;-46
2022/03/29 11:33:35;;;;;;;15.32;11.95;;;16.60;99.90;;;;;;5031991;28;20171;-46
2022/03/29 11:36:05;;;;;;;12.35;10.85;;;16.70;99.90;;;;;;5031796;28;20557;-46
2022/03/29 11:38:36;;;;;;;17.92;12.48;;;16.70;99.90;;;;;;5031881;28;20185;-46
2022/03/29 11:41:02;;;;;;;13.02;10.25;;;16.50;99.90;;;;;;5031581;28;20233;-46
2022/03/29 11:43:28;;;;;;;14.18;11.15;;;16.60;99.90;;;;;;5030764;28;20190;-46
2022/03/29 11:45:55;;;;;;;14.25;10.43;;;16.70;99.90;;;;;;5031499;28;20172;-46
2022/03/29 11:48:24;;;;;;;13.73;10.93;;;16.80;99.90;;;;;;5031305;28;20643;-46
2022/03/29 11:50:52;;;;;;;34.42;24.40;;;16.90;99.90;;;;;;5031696;28;20646;-46
2022/03/29 11:53:32;;;;;;;44.47;31.42;;;16.80;99.90;;;;;;5031611;28;20250;-46
2022/03/29 11:56:11;;;;;;;46.97;33.08;;;16.70;99.90;;;;;;5031189;28;20210;-46
2022/03/29 11:58:49;;;;;;;50.38;35.60;;;16.60;99.90;;;;;;5031575;28;20178;-46
2022/03/29 12:01:16;;;;;;;47.35;32.47;;;16.50;99.90;;;;;;5031160;28;20217;-46
2022/03/29 12:03:44;;;;;;;49.33;33.28;;;16.10;99.90;;;;;;5031131;28;20168;-47
2022/03/29 12:06:21;;;;;;;51.65;32.85;;;16.00;99.90;;;;;;5030959;28;20692;-46
2022/03/29 12:09:08;;;;;;;51.83;35.03;;;15.70;99.90;;;;;;5031573;28;20179;-47
2022/03/29 12:11:36;;;;;;;46.72;32.80;;;15.50;99.90;;;;;;5030991;28;20163;-47
2022/03/29 12:14:19;;;;;;;52.85;32.50;;;15.40;99.90;;;;;;5031073;28;20523;-46
2022/03/29 12:16:48;;;;;;;50.35;33.38;;;15.40;99.90;;;;;;5029709;28;20203;-47
2022/03/29 12:19:20;;;;;;;52.80;34.70;;;15.20;99.90;;;;;;5030816;28;20217;-47
2022/03/29 12:21:51;;;;;;;51.97;35.15;;;15.20;99.90;;;;;;5030812;28;20228;-47
2022/03/29 12:24:18;;;;;;;57.05;35.00;;;15.10;99.90;;;;;;5030033;28;20179;-47
2022/03/29 12:27:05;;;;;;;63.60;36.55;;;15.20;99.90;;;;;;5030653;28;20160;-46
2022/03/29 12:29:39;;;;;;;50.67;33.72;;;15.10;99.90;;;;;;5030992;28;20170;-46
2022/03/29 12:32:05;;;;;;;56.08;36.47;;;15.00;99.90;;;;;;5030733;28;20175;-46
2022/03/29 12:34:32;;;;;;;49.53;36.03;;;15.00;99.90;;;;;;5030776;28;20183;-47
2022/03/29 12:37:03;;;;;;;55.70;37.45;;;15.00;99.90;;;;;;5030828;28;20214;-46
2022/03/29 12:39:37;;;;;;;51.65;37.83;;;15.10;99.90;;;;;;5030723;28;20672;-46
2022/03/29 12:42:04;;;;;;;53.75;35.90;;;15.00;99.90;;;;;;5030896;28;20304;-46
2022/03/29 12:44:43;;;;;;;53.38;37.85;;;14.80;99.90;;;;;;5030518;28;20167;-46
2022/03/29 12:47:09;;;;;;;51.03;35.35;;;15.10;99.90;;;;;;5030616;28;20284;-47